Time;durP1;ratioP1;P1;durP2;ratioP2;P2;SDS_P1;SDS_P2;PMS_P1;PMS_P2;Temp;Humidity;BMP_temperature;BMP_pressure;BME280_temperature;BME280_humidity;BME280_pressure;Samples;Min_cycle;Max_cycle;Signal;HPM_P1;HPM_P2
2022/11/21 00:00:52;;;;;;;1.07;0.97;;;5.00;99.90;;;;;;4999639;28;20524;-68
2022/11/21 00:03:18;;;;;;;0.70;0.60;;;5.00;99.90;;;;;;4994159;28;20451;-67
2022/11/21 00:05:46;;;;;;;0.70;0.70;;;5.00;99.90;;;;;;4992122;28;20526;-67
2022/11/21 00:08:17;;;;;;;0.80;0.73;;;5.00;99.90;;;;;;4999341;28;20180;-68
2022/11/21 00:10:43;;;;;;;1.13;0.70;;;5.00;99.90;;;;;;4998838;28;20470;-68
2022/11/21 00:13:19;;;;;;;2.20;0.90;;;5.00;99.90;;;;;;5007325;28;20436;-67
2022/11/21 00:15:45;;;;;;;0.67;0.67;;;4.90;99.90;;;;;;5002161;28;20262;-67
2022/11/21 00:18:11;;;;;;;1.10;0.70;;;4.80;99.90;;;;;;4998638;28;20435;-68
2022/11/21 00:20:37;;;;;;;2.10;0.70;;;4.80;99.90;;;;;;4993447;28;20440;-68
2022/11/21 00:23:03;;;;;;;1.00;0.53;;;4.80;99.90;;;;;;4991523;28;20461;-73
2022/11/21 00:25:29;;;;;;;0.60;0.60;;;4.70;99.90;;;;;;5005963;28;20442;-67
2022/11/21 00:27:55;;;;;;;0.50;0.50;;;4.70;99.90;;;;;;5000351;28;20812;-67
2022/11/21 00:30:20;;;;;;;1.50;0.60;;;4.70;99.90;;;;;;5001368;28;20195;-67
2022/11/21 00:32:46;;;;;;;0.73;0.70;;;4.60;99.90;;;;;;5002542;28;20186;-67
2022/11/21 00:35:12;;;;;;;1.30;0.70;;;4.60;99.90;;;;;;5004842;28;20606;-68
2022/11/21 00:37:37;;;;;;;1.10;0.60;;;4.60;99.90;;;;;;5001768;28;20203;-70
2022/11/21 00:40:03;;;;;;;1.43;0.60;;;4.50;99.90;;;;;;4998775;28;20203;-67
2022/11/21 00:42:28;;;;;;;0.83;0.60;;;4.50;99.90;;;;;;4991812;28;20644;-67
2022/11/21 00:44:54;;;;;;;0.53;0.53;;;4.40;99.90;;;;;;5007632;28;20198;-69
2022/11/21 00:47:19;;;;;;;1.73;1.10;;;4.40;99.90;;;;;;4998342;28;20187;-68
2022/11/21 00:49:45;;;;;;;0.70;0.60;;;4.30;99.90;;;;;;5009361;28;20302;-68
2022/11/21 00:52:10;;;;;;;0.80;0.60;;;4.20;99.90;;;;;;4994469;28;20274;-69
2022/11/21 00:54:36;;;;;;;0.63;0.60;;;4.20;99.90;;;;;;4991593;28;20285;-67
2022/11/21 00:57:02;;;;;;;0.90;0.50;;;4.10;99.90;;;;;;4991579;28;20724;-69
2022/11/21 00:59:27;;;;;;;1.20;0.57;;;4.10;99.90;;;;;;4991485;28;20203;-69
2022/11/21 01:01:53;;;;;;;0.50;0.50;;;4.00;99.90;;;;;;4992143;28;20183;-67
2022/11/21 01:04:18;;;;;;;0.60;0.60;;;4.00;99.90;;;;;;4985606;28;20184;-68
2022/11/21 01:06:44;;;;;;;0.67;0.60;;;3.90;99.90;;;;;;4992476;28;20191;-69
2022/11/21 01:11:46;;;;;;;0.90;0.60;;;4.00;99.90;;;;;;4989845;28;20207;-65
2022/11/21 01:14:12;;;;;;;1.70;0.70;;;4.00;99.90;;;;;;4992407;28;20431;-64
2022/11/21 01:16:37;;;;;;;0.70;0.67;;;4.00;99.90;;;;;;4992424;28;20183;-64
2022/11/21 01:19:03;;;;;;;0.70;0.50;;;4.10;99.90;;;;;;4996989;28;20183;-69
2022/11/21 01:21:30;;;;;;;0.80;0.70;;;4.10;99.90;;;;;;4995436;28;20207;-66
2022/11/21 01:23:58;;;;;;;3.63;1.10;;;4.20;99.90;;;;;;4996771;28;20518;-65
2022/11/21 01:26:26;;;;;;;2.33;0.90;;;4.20;99.90;;;;;;4999215;28;20430;-65
2022/11/21 01:28:52;;;;;;;3.17;1.43;;;4.30;99.90;;;;;;4999680;28;20439;-68
2022/11/21 01:31:20;;;;;;;1.40;1.20;;;4.30;99.90;;;;;;4999371;28;20471;-68
2022/11/21 01:33:46;;;;;;;1.20;0.70;;;4.40;99.90;;;;;;4990389;28;20850;-68
2022/11/21 01:36:21;;;;;;;0.80;0.70;;;4.40;99.90;;;;;;4991848;28;20434;-68
2022/11/21 01:38:49;;;;;;;3.80;0.97;;;4.50;99.90;;;;;;4995622;28;20429;-66
2022/11/21 01:41:21;;;;;;;0.87;0.83;;;4.50;99.90;;;;;;5000915;28;20805;-66
2022/11/21 01:43:47;;;;;;;3.93;0.97;;;4.50;99.90;;;;;;4997199;28;20438;-65
2022/11/21 01:46:16;;;;;;;0.93;0.70;;;4.50;99.90;;;;;;4996710;28;21010;-66
2022/11/21 01:49:02;;;;;;;5.30;0.90;;;4.50;99.90;;;;;;4999803;28;20840;-66
2022/11/21 01:51:52;;;;;;;1.80;1.30;;;4.50;99.90;;;;;;4996722;28;20516;-69
2022/11/21 01:54:27;;;;;;;2.47;1.00;;;4.50;99.90;;;;;;5001323;28;20435;-69
2022/11/21 01:57:16;;;;;;;3.20;1.00;;;4.50;99.90;;;;;;4993325;28;20480;-66
2022/11/21 01:59:48;;;;;;;3.93;1.47;;;4.50;99.90;;;;;;4995782;28;20466;-66
2022/11/21 02:02:16;;;;;;;1.83;1.17;;;4.40;99.90;;;;;;4999129;28;20508;-65
2022/11/21 02:04:43;;;;;;;2.27;1.33;;;4.40;99.90;;;;;;4997267;28;20434;-66
2022/11/21 02:07:10;;;;;;;7.23;1.30;;;4.50;99.90;;;;;;4999949;28;20486;-66
2022/11/21 02:09:39;;;;;;;3.50;0.80;;;4.40;99.90;;;;;;4992124;28;20493;-65
2022/11/21 02:12:12;;;;;;;11.03;1.80;;;4.40;99.90;;;;;;4996393;28;20787;-69
2022/11/21 02:14:41;;;;;;;1.13;1.03;;;4.40;99.90;;;;;;5009451;28;20461;-67
2022/11/21 02:17:09;;;;;;;2.83;0.97;;;4.40;99.90;;;;;;4999579;28;20442;-66
2022/11/21 02:19:54;;;;;;;1.00;0.80;;;4.40;99.90;;;;;;4996558;28;20844;-66
2022/11/21 02:22:38;;;;;;;1.80;1.10;;;4.30;99.90;;;;;;4994278;28;20450;-67
2022/11/21 02:25:18;;;;;;;1.23;1.00;;;4.30;99.90;;;;;;4988361;28;20445;-67
2022/11/21 02:27:45;;;;;;;1.27;1.07;;;4.30;99.90;;;;;;4998975;28;20529;-68
2022/11/21 02:30:11;;;;;;;2.90;1.30;;;4.30;99.90;;;;;;4996275;28;20518;-67
2022/11/21 02:32:44;;;;;;;2.37;0.97;;;4.30;99.90;;;;;;4994864;28;20442;-66
2022/11/21 02:35:09;;;;;;;1.90;0.90;;;4.30;99.90;;;;;;4999046;28;20491;-67
2022/11/21 02:37:36;;;;;;;1.63;1.23;;;4.30;99.90;;;;;;4996199;28;20433;-66
2022/11/21 02:40:07;;;;;;;2.87;1.10;;;4.30;99.90;;;;;;5000119;28;20200;-67
2022/11/21 02:42:45;;;;;;;2.10;1.20;;;4.30;99.90;;;;;;4989162;28;20962;-66
2022/11/21 02:45:29;;;;;;;1.23;0.90;;;4.30;99.90;;;;;;4998476;28;20442;-65
2022/11/21 02:47:55;;;;;;;1.70;1.10;;;4.30;99.90;;;;;;4993460;28;20449;-66
2022/11/21 02:50:46;;;;;;;1.40;1.30;;;4.20;99.90;;;;;;5000852;28;20466;-66
2022/11/21 02:53:14;;;;;;;2.63;1.17;;;4.20;99.90;;;;;;5000522;28;20468;-68
2022/11/21 02:55:40;;;;;;;1.43;0.90;;;4.20;99.90;;;;;;5000481;28;20969;-65
2022/11/21 02:58:06;;;;;;;0.80;0.80;;;4.20;99.90;;;;;;5004693;28;20956;-66
2022/11/21 03:00:33;;;;;;;1.73;0.90;;;4.20;99.90;;;;;;4995380;28;20533;-65
2022/11/21 03:02:59;;;;;;;0.90;0.70;;;4.20;99.90;;;;;;4997223;28;20183;-65
2022/11/21 03:05:24;;;;;;;0.73;0.70;;;4.20;99.90;;;;;;5000629;28;20430;-65
2022/11/21 03:07:50;;;;;;;0.70;0.70;;;4.20;99.90;;;;;;4997031;28;20183;-66
2022/11/21 03:10:16;;;;;;;2.83;0.90;;;4.20;99.90;;;;;;5004098;28;20215;-65
2022/11/21 03:12:42;;;;;;;0.80;0.70;;;4.10;99.90;;;;;;4999630;28;20183;-66
2022/11/21 03:15:11;;;;;;;0.60;0.60;;;4.10;99.90;;;;;;5008993;28;20438;-66
2022/11/21 03:17:36;;;;;;;0.80;0.63;;;4.10;99.90;;;;;;5008479;28;21006;-71
2022/11/21 03:20:03;;;;;;;0.70;0.50;;;4.10;99.90;;;;;;4989315;28;20502;-65
2022/11/21 03:22:28;;;;;;;0.80;0.80;;;4.00;99.90;;;;;;4993011;28;20471;-65
2022/11/21 03:24:54;;;;;;;0.93;0.77;;;4.00;99.90;;;;;;4998053;28;20446;-66
2022/11/21 03:27:19;;;;;;;1.50;0.60;;;4.10;99.90;;;;;;5005971;28;20195;-68
2022/11/21 03:29:45;;;;;;;1.20;0.50;;;4.00;99.90;;;;;;4994436;28;20215;-65
2022/11/21 03:32:10;;;;;;;0.60;0.60;;;4.00;99.90;;;;;;4991871;28;20218;-66
2022/11/21 03:34:36;;;;;;;0.90;0.80;;;4.00;99.90;;;;;;4992178;28;20602;-67
2022/11/21 03:37:02;;;;;;;1.13;0.60;;;4.00;99.90;;;;;;4992125;28;20187;-65
2022/11/21 03:39:29;;;;;;;1.33;0.60;;;4.00;99.90;;;;;;4990977;28;20230;-65
2022/11/21 03:41:54;;;;;;;0.93;0.50;;;4.00;99.90;;;;;;4989494;28;20704;-68
2022/11/21 03:44:20;;;;;;;0.70;0.50;;;4.00;99.90;;;;;;4993849;28;20534;-65
2022/11/21 03:46:46;;;;;;;0.90;0.67;;;4.00;99.90;;;;;;4991094;28;20188;-65
2022/11/21 03:49:13;;;;;;;1.67;1.00;;;4.00;99.90;;;;;;4992971;28;20191;-66
2022/11/21 03:51:39;;;;;;;0.97;0.50;;;4.00;99.90;;;;;;4991598;28;20439;-65
2022/11/21 03:54:05;;;;;;;0.67;0.67;;;4.10;99.90;;;;;;4989319;28;20794;-66
2022/11/21 03:56:31;;;;;;;2.60;0.80;;;4.10;99.90;;;;;;4989326;28;20435;-65
2022/11/21 03:58:57;;;;;;;0.80;0.60;;;4.20;99.90;;;;;;4987969;28;20438;-66
2022/11/21 04:01:22;;;;;;;0.70;0.70;;;4.20;99.90;;;;;;4988792;28;20219;-66
2022/11/21 04:03:49;;;;;;;0.60;0.60;;;4.20;99.90;;;;;;4990788;28;20203;-69
2022/11/21 04:06:16;;;;;;;0.50;0.50;;;4.20;99.90;;;;;;4991922;28;20652;-68
2022/11/21 04:08:42;;;;;;;0.87;0.87;;;4.30;99.90;;;;;;4988016;28;20439;-65
2022/11/21 04:11:08;;;;;;;0.83;0.83;;;4.30;99.90;;;;;;4989329;28;20474;-66
2022/11/21 04:13:33;;;;;;;0.70;0.53;;;4.30;99.90;;;;;;4992581;28;20594;-67
2022/11/21 04:15:59;;;;;;;0.80;0.70;;;4.40;99.90;;;;;;4995208;28;20183;-65
2022/11/21 04:18:24;;;;;;;1.90;0.70;;;4.50;99.90;;;;;;5005933;28;20577;-65
2022/11/21 04:20:57;;;;;;;0.90;0.73;;;4.50;99.90;;;;;;4997468;28;20709;-65
2022/11/21 04:23:22;;;;;;;0.60;0.60;;;4.50;99.90;;;;;;5001376;28;20267;-66
2022/11/21 04:25:48;;;;;;;1.03;0.70;;;4.50;99.90;;;;;;5000896;28;20516;-65
2022/11/21 04:28:13;;;;;;;1.10;1.00;;;4.60;99.90;;;;;;4997762;28;20610;-66
2022/11/21 04:30:39;;;;;;;2.17;0.90;;;4.60;99.90;;;;;;4997004;28;20711;-66
2022/11/21 04:33:04;;;;;;;4.10;1.20;;;4.60;99.90;;;;;;4994666;28;20262;-68
2022/11/21 04:35:30;;;;;;;0.80;0.80;;;4.60;99.90;;;;;;5000082;28;20266;-69
2022/11/21 04:37:55;;;;;;;1.03;0.73;;;4.70;99.90;;;;;;4985048;28;20552;-66
2022/11/21 04:40:21;;;;;;;0.97;0.80;;;4.70;99.90;;;;;;5005609;28;20214;-68
2022/11/21 04:42:47;;;;;;;0.70;0.70;;;4.80;99.90;;;;;;5008001;28;20186;-66
2022/11/21 04:45:14;;;;;;;1.10;1.10;;;4.90;99.90;;;;;;4993889;28;20191;-66
2022/11/21 04:47:43;;;;;;;0.70;0.70;;;4.90;99.90;;;;;;5004696;28;20185;-68
2022/11/21 04:50:10;;;;;;;1.60;0.90;;;4.80;99.90;;;;;;4991480;28;21042;-66
2022/11/21 04:52:36;;;;;;;1.80;1.20;;;4.80;99.90;;;;;;4993231;28;20442;-66
2022/11/21 04:55:02;;;;;;;1.00;0.80;;;4.80;99.90;;;;;;4992399;28;20442;-65
2022/11/21 04:57:29;;;;;;;1.37;1.07;;;4.70;99.90;;;;;;4987258;28;20567;-65
2022/11/21 04:59:55;;;;;;;2.43;0.70;;;4.70;99.90;;;;;;4989149;28;22322;-66
2022/11/21 05:02:21;;;;;;;1.17;0.87;;;4.70;99.90;;;;;;4990797;28;20446;-66
2022/11/21 05:04:46;;;;;;;0.80;0.80;;;4.60;99.90;;;;;;4992428;28;20446;-65
2022/11/21 05:07:13;;;;;;;2.33;1.10;;;4.60;99.90;;;;;;4992447;28;20446;-66
2022/11/21 05:09:38;;;;;;;1.10;0.70;;;4.50;99.90;;;;;;4990505;28;20208;-65
2022/11/21 05:14:48;;;;;;;1.33;0.70;;;4.50;99.90;;;;;;4985224;28;20198;-67
2022/11/21 05:17:14;;;;;;;1.10;1.00;;;4.40;99.90;;;;;;4989802;28;20426;-65
2022/11/21 05:19:39;;;;;;;1.03;0.90;;;4.40;99.90;;;;;;4989969;28;20207;-66
2022/11/21 05:22:05;;;;;;;1.00;1.00;;;4.30;99.90;;;;;;4990847;28;20180;-66
2022/11/21 05:24:31;;;;;;;2.00;0.90;;;4.30;99.90;;;;;;4995974;28;20673;-68
2022/11/21 05:26:56;;;;;;;1.57;1.10;;;4.30;99.90;;;;;;4996810;28;20186;-65
2022/11/21 05:29:22;;;;;;;1.83;1.13;;;4.30;99.90;;;;;;4996941;28;20219;-65
2022/11/21 05:31:47;;;;;;;2.80;1.50;;;4.30;99.90;;;;;;4989422;28;20307;-67
2022/11/21 05:34:13;;;;;;;2.47;1.50;;;4.30;99.90;;;;;;5000287;28;20182;-65
2022/11/21 05:36:38;;;;;;;1.70;1.50;;;4.40;99.90;;;;;;5002469;28;20186;-71
2022/11/21 05:39:04;;;;;;;4.63;1.63;;;4.40;99.90;;;;;;4996305;28;20176;-68
2022/11/21 05:41:30;;;;;;;1.50;1.40;;;4.50;99.90;;;;;;5001074;28;20205;-65
2022/11/21 05:43:55;;;;;;;18.10;5.40;;;4.50;99.90;;;;;;4992716;28;20703;-66
2022/11/21 05:46:23;;;;;;;1.47;1.33;;;4.60;99.90;;;;;;5004590;28;20225;-65
2022/11/21 05:48:51;;;;;;;6.20;1.63;;;4.60;99.90;;;;;;4993736;28;20171;-67
2022/11/21 05:51:17;;;;;;;2.10;1.67;;;4.60;99.90;;;;;;4996074;28;20489;-65
2022/11/21 05:53:43;;;;;;;4.03;1.57;;;4.60;99.90;;;;;;5001667;28;20520;-65
2022/11/21 05:56:12;;;;;;;5.90;2.13;;;4.70;99.90;;;;;;4994884;28;20489;-65
2022/11/21 05:58:37;;;;;;;1.73;1.13;;;4.70;99.90;;;;;;4991399;28;20501;-65
2022/11/21 06:01:04;;;;;;;2.90;1.40;;;4.80;99.90;;;;;;4988253;28;20466;-71
2022/11/21 06:03:34;;;;;;;2.50;1.90;;;4.80;99.90;;;;;;4996487;28;20270;-65
2022/11/21 06:06:02;;;;;;;2.20;1.13;;;4.80;99.90;;;;;;4992606;28;20443;-65
2022/11/21 06:08:29;;;;;;;3.17;1.47;;;4.80;99.90;;;;;;5000386;28;20499;-65
2022/11/21 06:10:54;;;;;;;2.17;1.40;;;4.80;99.90;;;;;;4987129;28;20856;-68
2022/11/21 06:13:23;;;;;;;2.20;1.70;;;4.70;99.90;;;;;;4997564;28;20433;-65
2022/11/21 06:16:07;;;;;;;3.83;1.60;;;4.70;99.90;;;;;;4985193;28;20180;-69
2022/11/21 06:18:35;;;;;;;1.50;1.40;;;4.70;99.90;;;;;;4989196;28;20430;-66
2022/11/21 06:21:01;;;;;;;7.60;3.40;;;4.80;99.90;;;;;;4990289;28;20489;-66
2022/11/21 06:23:27;;;;;;;1.87;1.63;;;4.80;99.90;;;;;;4991062;28;20441;-65
2022/11/21 06:25:57;;;;;;;3.07;1.67;;;4.70;99.90;;;;;;4993745;28;20434;-67
2022/11/21 06:28:23;;;;;;;2.50;2.20;;;4.70;99.90;;;;;;4990182;28;20241;-66
2022/11/21 06:30:50;;;;;;;3.07;1.40;;;4.70;99.90;;;;;;4994820;28;20470;-66
2022/11/21 06:33:17;;;;;;;2.37;1.70;;;4.60;99.90;;;;;;4993919;28;20449;-65
2022/11/21 06:35:42;;;;;;;3.93;1.60;;;4.60;99.90;;;;;;4993190;28;20446;-65
2022/11/21 06:38:08;;;;;;;1.57;1.47;;;4.60;99.90;;;;;;4990971;28;20446;-65
2022/11/21 06:40:34;;;;;;;2.47;2.27;;;4.60;99.90;;;;;;4993393;28;20466;-65
2022/11/21 06:43:00;;;;;;;1.40;1.30;;;4.60;99.90;;;;;;4987778;28;20898;-66
2022/11/21 06:45:26;;;;;;;3.33;2.00;;;4.50;99.90;;;;;;4992906;28;20615;-66
2022/11/21 06:47:52;;;;;;;2.90;1.80;;;4.50;99.90;;;;;;4993447;28;20446;-66
2022/11/21 06:50:18;;;;;;;4.43;1.80;;;4.40;99.90;;;;;;4992434;28;20846;-65
2022/11/21 06:52:43;;;;;;;2.00;1.80;;;4.40;99.90;;;;;;4994537;28;20188;-65
2022/11/21 06:55:09;;;;;;;2.40;1.53;;;4.30;99.90;;;;;;4990802;28;20271;-66
2022/11/21 06:57:35;;;;;;;2.27;2.07;;;4.30;99.90;;;;;;4993036;28;20290;-65
2022/11/21 07:00:01;;;;;;;2.80;1.97;;;4.30;99.90;;;;;;4991042;28;20554;-68
2022/11/21 07:02:26;;;;;;;3.80;2.20;;;4.20;99.90;;;;;;4992709;28;20209;-65
2022/11/21 07:04:52;;;;;;;2.10;1.90;;;4.20;99.90;;;;;;4993842;28;20179;-68
2022/11/21 07:07:18;;;;;;;4.50;2.63;;;4.10;99.90;;;;;;4993947;28;20175;-66
2022/11/21 07:15:14;;;;;;;2.57;2.37;;;4.00;99.90;;;;;;4958023;28;20482;-70
2022/11/21 07:17:40;;;;;;;4.40;2.40;;;4.00;99.90;;;;;;4957238;28;20514;-68
2022/11/21 07:20:06;;;;;;;2.93;2.63;;;4.00;99.90;;;;;;4955279;28;20201;-70
2022/11/21 07:22:31;;;;;;;3.93;3.63;;;4.00;99.90;;;;;;4933026;29;20190;-70
2022/11/21 07:24:57;;;;;;;4.30;3.23;;;4.20;99.90;;;;;;4943636;29;20467;-70
2022/11/21 07:27:22;;;;;;;6.03;4.13;;;4.60;99.90;;;;;;4935851;29;20192;-71
2022/11/21 07:29:48;;;;;;;5.00;3.50;;;5.00;99.90;;;;;;4938680;28;20209;-71
2022/11/21 07:32:14;;;;;;;5.63;4.20;;;5.40;99.90;;;;;;4938663;29;20189;-71
2022/11/21 07:34:39;;;;;;;3.50;3.20;;;5.80;99.90;;;;;;4937505;28;20215;-71
2022/11/21 07:37:05;;;;;;;4.20;2.53;;;6.00;99.90;;;;;;4949802;28;20195;-70
2022/11/21 07:39:30;;;;;;;2.90;2.60;;;6.00;99.90;;;;;;4930946;29;20181;-71
2022/11/21 07:41:56;;;;;;;7.37;2.70;;;6.20;99.90;;;;;;4939306;29;20209;-70
2022/11/21 07:44:21;;;;;;;2.63;2.30;;;6.80;99.90;;;;;;4932352;29;20276;-70
2022/11/21 07:46:47;;;;;;;2.63;2.40;;;7.20;99.90;;;;;;4938737;29;20659;-70
2022/11/21 07:49:12;;;;;;;2.83;2.00;;;7.70;99.90;;;;;;4929935;29;20224;-70
2022/11/21 07:51:38;;;;;;;4.90;3.60;;;7.90;99.90;;;;;;4947556;28;20209;-68
2022/11/21 07:54:03;;;;;;;3.40;2.70;;;8.40;99.90;;;;;;4927932;28;20194;-67
2022/11/21 07:56:29;;;;;;;3.63;2.03;;;9.10;99.90;;;;;;4949175;28;20180;-68
2022/11/21 07:58:54;;;;;;;2.20;2.00;;;9.30;99.90;;;;;;4926226;29;20185;-68
2022/11/21 08:01:20;;;;;;;3.83;2.83;;;9.30;99.90;;;;;;4931972;29;20424;-67
2022/11/21 08:03:45;;;;;;;9.03;5.17;;;9.70;99.90;;;;;;4934690;29;20186;-68
2022/11/21 08:06:12;;;;;;;3.53;3.20;;;10.50;99.90;;;;;;4933481;29;20225;-68
2022/11/21 08:08:37;;;;;;;4.50;2.93;;;11.50;99.90;;;;;;4929621;29;20182;-68
2022/11/21 08:11:05;;;;;;;4.30;4.00;;;12.50;99.90;;;;;;4927798;29;20487;-67
2022/11/21 08:13:31;;;;;;;3.27;2.30;;;13.60;99.90;;;;;;4934021;29;20193;-68
2022/11/21 08:15:56;;;;;;;4.93;2.47;;;14.40;99.90;;;;;;4932534;29;20446;-67
2022/11/21 08:18:22;;;;;;;3.40;2.00;;;14.30;99.90;;;;;;4948578;29;20961;-68
2022/11/21 08:20:48;;;;;;;4.00;2.90;;;13.50;99.90;;;;;;4936194;28;20212;-68
2022/11/21 08:23:14;;;;;;;5.80;3.00;;;14.00;99.90;;;;;;4941199;29;20612;-69
2022/11/21 08:25:40;;;;;;;5.17;4.00;;;14.60;99.90;;;;;;4928655;28;20604;-68
2022/11/21 08:28:07;;;;;;;6.13;3.20;;;14.80;99.90;;;;;;4934524;29;20236;-68
2022/11/21 08:30:33;;;;;;;4.00;2.37;;;14.90;99.90;;;;;;4930147;29;20994;-68
2022/11/21 08:33:00;;;;;;;3.10;2.80;;;14.90;99.90;;;;;;4932002;29;20445;-68
2022/11/21 08:35:26;;;;;;;3.93;2.20;;;14.70;99.90;;;;;;4942330;29;20846;-68
2022/11/21 08:37:59;;;;;;;3.57;1.97;;;14.40;99.90;;;;;;4932652;29;20460;-67
2022/11/21 08:40:26;;;;;;;6.07;5.07;;;14.50;99.90;;;;;;4936812;29;20468;-68
2022/11/21 08:43:03;;;;;;;3.00;2.40;;;15.00;99.90;;;;;;4935549;29;20445;-67
2022/11/21 08:45:29;;;;;;;4.30;2.90;;;16.00;99.90;;;;;;4929745;29;20483;-67
2022/11/21 08:47:55;;;;;;;2.63;2.00;;;16.50;99.90;;;;;;4932930;29;20457;-69
2022/11/21 08:50:21;;;;;;;3.70;2.40;;;17.00;99.90;;;;;;4943233;29;20499;-68
2022/11/21 08:52:47;;;;;;;3.03;2.10;;;17.60;99.90;;;;;;4946295;28;20605;-68
2022/11/21 08:55:13;;;;;;;3.30;3.00;;;17.70;99.90;;;;;;4935283;29;20437;-67
2022/11/21 08:57:40;;;;;;;4.40;2.23;;;17.50;99.90;;;;;;4931742;28;20450;-67
2022/11/21 09:00:07;;;;;;;6.03;5.40;;;17.90;99.90;;;;;;4935975;29;20465;-68
2022/11/21 09:02:33;;;;;;;3.43;1.77;;;18.30;99.90;;;;;;4933144;28;20802;-67
2022/11/21 09:04:59;;;;;;;3.87;1.83;;;18.60;96.20;;;;;;4931712;29;20457;-68
2022/11/21 09:07:25;;;;;;;3.43;2.53;;;18.70;97.00;;;;;;4941463;29;20817;-68
2022/11/21 09:09:50;;;;;;;2.73;1.67;;;19.40;94.80;;;;;;4936016;28;20208;-67
2022/11/21 09:12:16;;;;;;;6.20;2.77;;;20.20;91.80;;;;;;4949233;28;20198;-67
2022/11/21 09:20:10;;;;;;;3.63;1.90;;;18.80;91.20;;;;;;4929260;29;20848;-67
2022/11/21 09:22:35;;;;;;;1.70;1.50;;;18.60;92.20;;;;;;4934636;29;20446;-67
2022/11/21 09:25:01;;;;;;;2.93;1.83;;;18.50;90.70;;;;;;4934024;29;20244;-68
2022/11/21 09:27:26;;;;;;;2.63;1.90;;;17.50;92.70;;;;;;4934236;29;20704;-67
2022/11/21 09:29:52;;;;;;;1.60;1.50;;;17.50;93.60;;;;;;4942257;28;20220;-66
2022/11/21 09:32:17;;;;;;;4.30;1.70;;;17.90;92.30;;;;;;4931210;29;20181;-69
2022/11/21 09:34:43;;;;;;;3.13;1.90;;;17.00;93.70;;;;;;4935247;28;20643;-68
2022/11/21 09:37:09;;;;;;;3.90;2.20;;;16.80;93.80;;;;;;4937053;29;20550;-68
2022/11/21 09:39:34;;;;;;;2.37;2.10;;;17.00;94.50;;;;;;4946426;28;20180;-68
2022/11/21 09:42:27;;;;;;;3.90;1.87;;;17.10;93.80;;;;;;4933114;28;20667;-67
2022/11/21 09:45:04;;;;;;;3.33;2.00;;;16.90;95.90;;;;;;4940049;29;20273;-68
2022/11/21 09:47:32;;;;;;;1.80;1.63;;;17.30;94.40;;;;;;4935260;29;20804;-67
2022/11/21 09:50:04;;;;;;;2.87;1.60;;;18.30;93.40;;;;;;4950836;28;20460;-66
2022/11/21 09:53:01;;;;;;;2.77;2.07;;;18.90;90.50;;;;;;4935432;29;20472;-67
2022/11/21 09:55:34;;;;;;;3.27;2.40;;;19.70;88.50;;;;;;4947264;29;20800;-68
2022/11/21 09:58:10;;;;;;;3.10;1.60;;;18.80;88.10;;;;;;4937891;28;20483;-67
2022/11/21 10:00:36;;;;;;;3.00;2.13;;;18.80;88.60;;;;;;4937485;29;21012;-67
2022/11/21 10:03:01;;;;;;;3.47;1.93;;;18.40;90.60;;;;;;4938069;29;20444;-67
2022/11/21 10:05:43;;;;;;;1.93;1.50;;;18.80;88.80;;;;;;4942351;29;20264;-67
2022/11/21 10:08:26;;;;;;;2.43;1.80;;;19.10;83.50;;;;;;4945345;28;20208;-66
2022/11/21 10:10:59;;;;;;;4.90;1.70;;;18.30;86.70;;;;;;4934695;28;21009;-67
2022/11/21 10:13:36;;;;;;;3.07;1.73;;;17.80;88.90;;;;;;4942706;29;20464;-67
2022/11/21 10:16:12;;;;;;;1.70;1.57;;;17.90;88.80;;;;;;4943970;28;20535;-66
2022/11/21 10:18:52;;;;;;;1.93;1.63;;;17.40;89.40;;;;;;4940825;29;20455;-67
2022/11/21 10:21:38;;;;;;;1.87;1.67;;;18.00;89.30;;;;;;4936566;29;20468;-68
2022/11/21 10:24:42;;;;;;;5.27;1.93;;;18.40;86.60;;;;;;4942821;29;20973;-67
2022/11/21 10:27:33;;;;;;;2.90;1.33;;;18.80;84.60;;;;;;4937456;28;20521;-67
2022/11/21 10:30:03;;;;;;;3.67;1.67;;;18.50;84.80;;;;;;4946108;29;20461;-67
2022/11/21 10:32:42;;;;;;;6.10;2.37;;;20.30;81.80;;;;;;4937865;29;20988;-67
2022/11/21 10:35:19;;;;;;;2.33;1.40;;;22.00;72.70;;;;;;4946180;29;20505;-69
2022/11/21 10:37:58;;;;;;;2.67;1.27;;;21.40;71.30;;;;;;4933956;29;20489;-67
2022/11/21 10:40:44;;;;;;;2.70;1.77;;;21.30;70.30;;;;;;4935219;29;20497;-67
2022/11/21 10:46:21;;;;;;;6.43;1.87;;;18.20;79.20;;;;;;4921271;29;20508;-67
2022/11/21 10:48:54;;;;;;;5.20;1.80;;;15.80;90.40;;;;;;4943356;29;20440;-67
2022/11/21 10:51:38;;;;;;;3.17;2.40;;;16.40;91.40;;;;;;4940575;28;20268;-67
2022/11/21 10:56:52;;;;;;;2.93;1.60;;;16.80;90.30;;;;;;4953143;29;20451;-68
2022/11/21 10:59:27;;;;;;;3.47;2.40;;;14.80;94.30;;;;;;4935845;28;21025;-67
2022/11/21 11:01:58;;;;;;;3.37;2.00;;;13.80;99.00;;;;;;4926435;29;20814;-66
2022/11/21 11:04:26;;;;;;;2.07;1.80;;;15.40;97.40;;;;;;4935443;29;20438;-66
2022/11/21 11:06:52;;;;;;;4.00;1.80;;;16.80;92.70;;;;;;4929848;29;20825;-67
2022/11/21 11:09:33;;;;;;;1.93;1.60;;;18.70;85.60;;;;;;4928254;29;20442;-68
2022/11/21 11:15:23;;;;;;;2.53;1.50;;;23.50;64.30;;;;;;4929768;29;20495;-66
2022/11/21 11:17:55;;;;;;;2.83;1.60;;;23.90;59.80;;;;;;4934133;29;20467;-68
2022/11/21 11:20:42;;;;;;;2.93;1.60;;;21.80;62.80;;;;;;4943310;28;20518;-66
2022/11/21 11:23:19;;;;;;;4.67;2.03;;;21.00;61.40;;;;;;4929884;29;20508;-65
2022/11/21 11:25:48;;;;;;;5.50;2.23;;;17.60;71.30;;;;;;4933563;29;20526;-66
2022/11/21 11:28:13;;;;;;;3.23;1.40;;;15.80;86.30;;;;;;4930881;29;20552;-66
2022/11/21 11:30:39;;;;;;;4.10;2.63;;;17.30;83.60;;;;;;4925311;29;20557;-66
2022/11/21 11:33:28;;;;;;;3.77;2.13;;;19.50;72.80;;;;;;4932589;29;20596;-67
2022/11/21 11:36:02;;;;;;;4.93;1.90;;;18.70;68.20;;;;;;4934640;29;20808;-65
2022/11/21 11:38:29;;;;;;;1.63;1.40;;;18.10;72.20;;;;;;4933691;29;20879;-65
2022/11/21 11:40:59;;;;;;;2.90;1.97;;;18.10;72.80;;;;;;4935317;29;20820;-66
2022/11/21 11:52:21;;;;;;;2.03;1.70;;;16.90;80.20;;;;;;4933076;29;20452;-65
2022/11/21 11:54:50;;;;;;;3.83;2.17;;;17.30;81.20;;;;;;4927191;29;20438;-65
2022/11/21 11:57:16;;;;;;;4.63;1.93;;;17.80;77.20;;;;;;4931353;29;20799;-66
2022/11/21 11:59:53;;;;;;;3.73;1.53;;;18.90;74.50;;;;;;4946809;28;20443;-66
2022/11/21 12:02:28;;;;;;;2.33;1.70;;;19.10;70.80;;;;;;4932632;28;20659;-65
2022/11/21 12:05:01;;;;;;;3.43;1.43;;;20.40;67.20;;;;;;4931460;29;20444;-66
2022/11/21 12:07:36;;;;;;;7.10;1.70;;;21.00;65.00;;;;;;4947055;29;20449;-67
2022/11/21 12:10:19;;;;;;;2.87;1.33;;;21.30;62.90;;;;;;4948747;28;20476;-67
2022/11/21 12:12:51;;;;;;;2.33;1.43;;;20.10;62.80;;;;;;4934674;29;20444;-66
2022/11/21 12:18:19;;;;;;;4.00;2.13;;;16.30;78.80;;;;;;4924636;29;20856;-65
2022/11/21 12:21:06;;;;;;;3.00;1.43;;;15.20;88.80;;;;;;4948727;28;20456;-65
2022/11/21 12:23:45;;;;;;;5.37;2.40;;;14.40;93.40;;;;;;4939707;29;20826;-65
2022/11/21 12:26:19;;;;;;;4.50;2.33;;;14.00;95.40;;;;;;4941429;29;20445;-66
2022/11/21 12:29:03;;;;;;;2.33;1.53;;;13.60;96.70;;;;;;4942674;29;20440;-66
2022/11/21 12:31:37;;;;;;;3.90;2.23;;;13.60;97.50;;;;;;4930203;28;20461;-65
2022/11/21 12:34:11;;;;;;;4.40;2.50;;;13.90;96.60;;;;;;4936508;29;20507;-64
2022/11/21 12:36:56;;;;;;;2.53;1.47;;;14.30;94.70;;;;;;4930369;28;20443;-65
2022/11/21 12:39:27;;;;;;;3.27;1.73;;;14.90;94.50;;;;;;4936149;29;20460;-66
2022/11/21 12:45:23;;;;;;;1.97;1.50;;;16.80;87.80;;;;;;4932829;29;20492;-66
2022/11/21 12:56:56;;;;;;;2.80;2.50;;;14.30;93.90;;;;;;4936037;29;20436;-66
2022/11/21 12:59:24;;;;;;;2.00;1.80;;;14.10;94.90;;;;;;4934214;29;20511;-66
2022/11/21 13:01:55;;;;;;;5.70;2.37;;;13.90;94.60;;;;;;4929408;29;20547;-66
2022/11/21 13:04:27;;;;;;;2.23;1.80;;;13.20;96.60;;;;;;4930225;29;20813;-65
2022/11/21 13:06:55;;;;;;;2.90;1.60;;;12.90;98.30;;;;;;4939572;29;20439;-65
2022/11/21 13:09:23;;;;;;;4.20;1.80;;;12.80;98.60;;;;;;4940312;29;20847;-66
2022/11/21 13:11:59;;;;;;;2.63;1.77;;;12.70;98.60;;;;;;4943587;29;20477;-66
2022/11/21 13:14:43;;;;;;;4.07;1.43;;;12.90;98.60;;;;;;4934381;29;20525;-65
2022/11/21 13:17:11;;;;;;;2.23;1.40;;;14.50;95.40;;;;;;4940103;29;20464;-65
2022/11/21 13:19:51;;;;;;;5.13;1.73;;;18.20;82.80;;;;;;4929814;28;20441;-65
2022/11/21 13:22:35;;;;;;;8.70;2.30;;;20.20;71.70;;;;;;4933446;29;20452;-65
2022/11/21 13:25:13;;;;;;;5.03;1.80;;;21.00;65.70;;;;;;4929572;28;20810;-66
2022/11/21 13:27:46;;;;;;;3.20;1.80;;;23.40;59.90;;;;;;4922272;29;20432;-66
2022/11/21 13:30:13;;;;;;;3.77;1.47;;;23.80;56.90;;;;;;4939000;29;20532;-66
2022/11/21 13:32:43;;;;;;;2.77;1.40;;;24.20;54.50;;;;;;4936746;28;20927;-66
2022/11/21 13:35:20;;;;;;;2.40;1.53;;;21.30;54.40;;;;;;4931822;29;20440;-68
2022/11/21 13:37:48;;;;;;;2.40;2.00;;;18.20;59.30;;;;;;4936244;29;20429;-68
2022/11/21 13:40:26;;;;;;;5.63;1.90;;;15.60;71.40;;;;;;4934903;29;20468;-68
2022/11/21 13:43:18;;;;;;;3.17;1.97;;;14.30;82.80;;;;;;4931018;28;20506;-69
2022/11/21 13:45:51;;;;;;;2.73;1.80;;;13.40;90.00;;;;;;4941934;29;21089;-68
2022/11/21 13:49:03;;;;;;;2.90;1.87;;;12.50;93.50;;;;;;4938311;29;20449;-68
2022/11/21 13:51:49;;;;;;;2.63;1.50;;;12.10;95.90;;;;;;4933187;29;20473;-68
2022/11/21 13:54:53;;;;;;;5.43;2.03;;;11.80;95.40;;;;;;4930992;29;20433;-68